createdAt,value
2022-11-20T00:01:37.594Z,1.40
2022-11-20T00:04:05.670Z,1.40
2022-11-20T00:06:34.905Z,1.50
2022-11-20T00:09:05.626Z,1.40
2022-11-20T00:11:37.186Z,1.40
2022-11-20T00:14:05.657Z,1.50
2022-11-20T00:16:37.555Z,1.40
2022-11-20T00:19:08.470Z,1.30
2022-11-20T00:21:37.619Z,1.30
2022-11-20T00:24:11.265Z,1.20
2022-11-20T00:26:39.418Z,1.40
2022-11-20T00:31:36.949Z,1.20
2022-11-20T00:34:04.790Z,1.20
2022-11-20T00:36:40.252Z,1.20
2022-11-20T00:39:10.262Z,1.20
2022-11-20T00:41:38.133Z,1.20
2022-11-20T00:44:06.217Z,1.20
2022-11-20T00:46:34.063Z,1.20
2022-11-20T00:51:30.137Z,1.10
2022-11-20T00:54:00.945Z,1.10
2022-11-20T00:56:28.954Z,1.10
2022-11-20T00:58:56.958Z,1.00
2022-11-20T01:01:27.680Z,1.10
2022-11-20T01:03:58.100Z,1.00
2022-11-20T01:06:27.496Z,1.00
2022-11-20T01:08:58.063Z,1.00
2022-11-20T01:11:29.627Z,1.00
2022-11-20T01:13:59.367Z,1.00
2022-11-20T01:16:29.730Z,1.00
2022-11-20T01:19:00.462Z,1.00
2022-11-20T01:21:30.217Z,1.00
2022-11-20T01:23:58.869Z,1.00
2022-11-20T01:26:30.503Z,1.00
2022-11-20T01:28:58.906Z,0.90
2022-11-20T01:31:29.866Z,0.90
2022-11-20T01:34:00.062Z,0.90
2022-11-20T01:36:29.934Z,1.10
2022-11-20T01:39:01.323Z,0.80
2022-11-20T01:41:49.474Z,4.00
2022-11-20T01:44:19.800Z,0.90
2022-11-20T01:46:57.330Z,0.90
2022-11-20T01:49:44.855Z,0.80
2022-11-20T01:52:23.485Z,0.80
2022-11-20T01:54:58.041Z,0.80
2022-11-20T01:57:31.740Z,0.70
2022-11-20T02:00:06.789Z,0.80
2022-11-20T02:02:34.925Z,0.70
2022-11-20T02:05:12.517Z,0.60
2022-11-20T02:07:40.807Z,0.80
2022-11-20T02:10:09.361Z,0.70
2022-11-20T02:12:56.052Z,1.10
2022-11-20T02:15:27.603Z,0.70
2022-11-20T02:17:58.439Z,0.60
2022-11-20T02:20:26.279Z,0.70
2022-11-20T02:23:01.103Z,0.60
2022-11-20T02:25:34.868Z,0.60
2022-11-20T02:28:02.941Z,0.60
2022-11-20T02:30:30.719Z,0.50
2022-11-20T02:33:01.397Z,0.60
2022-11-20T02:35:45.263Z,0.60
2022-11-20T02:38:15.882Z,0.50
2022-11-20T02:40:45.428Z,0.50
2022-11-20T02:43:13.471Z,0.50
2022-11-20T02:45:41.431Z,0.60
2022-11-20T02:48:09.819Z,0.50
2022-11-20T02:50:40.788Z,0.50
2022-11-20T02:53:17.170Z,0.40
2022-11-20T02:55:46.293Z,0.50
2022-11-20T02:58:20.001Z,0.60
2022-11-20T03:00:50.453Z,0.50
2022-11-20T03:03:18.313Z,0.50
2022-11-20T03:05:50.502Z,0.50
2022-11-20T03:08:18.294Z,0.40
2022-11-20T03:10:47.485Z,0.40
2022-11-20T03:13:15.315Z,0.40
2022-11-20T03:15:43.193Z,0.40
2022-11-20T03:18:14.514Z,0.40
2022-11-20T03:20:42.309Z,0.30
2022-11-20T03:25:38.178Z,0.30
2022-11-20T03:28:10.083Z,0.20
2022-11-20T03:33:05.979Z,0.10
2022-11-20T03:35:36.569Z,0.20
2022-11-20T03:38:07.230Z,0.20
2022-11-20T03:40:39.238Z,0.20
2022-11-20T03:45:42.184Z,0.20
2022-11-20T03:50:40.378Z,0.20
2022-11-20T03:53:09.990Z,0.10
2022-11-20T03:55:37.720Z,0.20
2022-11-20T04:00:36.484Z,0.10
2022-11-20T04:03:05.892Z,0.10
2022-11-20T04:05:35.212Z,0.00
2022-11-20T04:08:03.138Z,0.10
2022-11-20T04:10:30.882Z,0.10
2022-11-20T04:12:58.686Z,0.10
2022-11-20T04:15:26.439Z,0.10
2022-11-20T04:17:54.246Z,0.00
2022-11-20T04:20:23.334Z,-0.10
2022-11-20T04:22:51.055Z,0.00
2022-11-20T04:25:19.098Z,0.00
2022-11-20T04:30:15.527Z,-0.10
2022-11-20T04:32:43.273Z,0.00
2022-11-20T04:35:14.652Z,-0.20
2022-11-20T04:37:43.793Z,0.00
2022-11-20T04:40:12.509Z,-0.10
2022-11-20T04:42:40.265Z,-0.10
2022-11-20T04:45:09.993Z,-0.10
2022-11-20T04:47:37.781Z,0.00
2022-11-20T04:50:07.901Z,-0.20
2022-11-20T04:52:35.771Z,-0.20
2022-11-20T04:55:05.628Z,-0.20
2022-11-20T04:57:33.430Z,-0.20
2022-11-20T05:02:15.864Z,-0.10
2022-11-20T05:04:43.717Z,-0.10
2022-11-20T05:07:11.603Z,-0.10
2022-11-20T05:09:39.538Z,-0.10
2022-11-20T05:12:12.230Z,-0.20
2022-11-20T05:14:39.976Z,-0.20
2022-11-20T05:17:11.637Z,-0.20
2022-11-20T05:19:42.053Z,-0.20
2022-11-20T05:22:13.877Z,-0.20
2022-11-20T05:24:48.091Z,-0.30
2022-11-20T05:29:44.069Z,-0.40
2022-11-20T05:32:14.725Z,-0.40
2022-11-20T05:34:49.388Z,-0.30
2022-11-20T05:39:46.507Z,-0.40
2022-11-20T05:45:01.765Z,-0.40
2022-11-20T05:47:33.042Z,-0.40
2022-11-20T05:50:03.769Z,-0.30
2022-11-20T05:52:33.739Z,-0.40
2022-11-20T05:55:01.542Z,-0.40
2022-11-20T05:57:32.014Z,-0.50
2022-11-20T06:04:58.732Z,-0.40
2022-11-20T06:07:31.723Z,-0.50
2022-11-20T06:10:01.945Z,-0.50
2022-11-20T06:15:04.935Z,-0.60
2022-11-20T06:17:38.485Z,-0.70
2022-11-20T06:20:07.417Z,-0.70
2022-11-20T06:22:38.987Z,-0.80
2022-11-20T06:25:09.809Z,-0.60
2022-11-20T06:30:06.677Z,-0.70
2022-11-20T06:32:35.290Z,-0.70
2022-11-20T06:35:10.146Z,-0.70
2022-11-20T06:37:42.361Z,-0.80
2022-11-20T06:40:11.819Z,-0.70
2022-11-20T06:45:08.719Z,-0.80
2022-11-20T06:50:05.040Z,-0.80
2022-11-20T06:52:32.851Z,-0.70
2022-11-20T06:55:02.053Z,-0.70
2022-11-20T06:57:31.950Z,-0.70
2022-11-20T06:59:59.696Z,-0.70
2022-11-20T07:02:27.506Z,-0.70
2022-11-20T07:07:30.173Z,-0.80
2022-11-20T07:12:30.108Z,-0.70
2022-11-20T07:14:57.862Z,-0.70
2022-11-20T07:17:28.254Z,-0.70
2022-11-20T07:19:56.023Z,-0.60
2022-11-20T07:22:28.199Z,-0.60
2022-11-20T07:24:59.695Z,-0.70
2022-11-20T07:27:28.835Z,-0.60
2022-11-20T07:29:58.089Z,-0.60
2022-11-20T07:35:06.727Z,-0.60
2022-11-20T07:37:36.262Z,-0.50
2022-11-20T07:40:04.429Z,-0.60
2022-11-20T07:42:33.540Z,-0.60
2022-11-20T07:45:03.129Z,-0.60
2022-11-20T07:47:30.926Z,-0.60
2022-11-20T07:49:58.802Z,-0.50
2022-11-20T07:52:28.514Z,-0.40
2022-11-20T07:55:02.451Z,-0.40
2022-11-20T08:00:00.326Z,-0.30
2022-11-20T08:02:28.789Z,-0.30
2022-11-20T08:04:56.582Z,-0.30
2022-11-20T08:07:24.513Z,-0.30
2022-11-20T08:09:55.119Z,-0.20
2022-11-20T08:12:41.098Z,-0.20
2022-11-20T08:15:14.138Z,-0.10
2022-11-20T08:17:41.985Z,0.00
2022-11-20T08:20:12.092Z,0.00
2022-11-20T08:22:39.841Z,0.10
2022-11-20T08:25:08.419Z,0.20
2022-11-20T08:30:11.416Z,0.20
2022-11-20T08:32:40.559Z,0.30
2022-11-20T08:35:14.674Z,0.40
2022-11-20T08:37:42.923Z,0.30
2022-11-20T08:40:16.984Z,0.40
2022-11-20T08:42:50.770Z,0.50
2022-11-20T08:45:20.165Z,0.50
2022-11-20T08:50:32.931Z,0.70
2022-11-20T08:53:05.330Z,0.70
2022-11-20T08:55:36.014Z,0.80
2022-11-20T08:58:08.594Z,0.80
2022-11-20T09:00:37.990Z,0.80
2022-11-20T09:03:09.461Z,1.00
2022-11-20T09:05:37.229Z,1.00
2022-11-20T09:08:07.752Z,1.00
2022-11-20T09:10:41.510Z,1.10
2022-11-20T09:13:10.705Z,1.10
2022-11-20T09:15:38.500Z,1.20
2022-11-20T09:18:07.599Z,1.20
2022-11-20T09:20:38.062Z,1.40
2022-11-20T09:23:05.950Z,1.50
2022-11-20T09:25:33.812Z,1.40
2022-11-20T09:28:06.939Z,1.60
2022-11-20T09:30:35.503Z,1.60
2022-11-20T09:33:05.198Z,1.60
2022-11-20T09:35:34.427Z,1.70
2022-11-20T09:38:07.242Z,1.80
2022-11-20T09:40:37.302Z,1.80
2022-11-20T09:43:13.514Z,1.90
2022-11-20T09:45:56.630Z,2.00
2022-11-20T09:48:43.181Z,2.20
2022-11-20T09:51:28.162Z,2.20
2022-11-20T09:54:08.329Z,2.30
2022-11-20T09:56:38.433Z,2.40
2022-11-20T09:59:16.442Z,2.40
2022-11-20T10:01:45.642Z,2.40
2022-11-20T10:04:18.797Z,2.50
2022-11-20T10:07:30.756Z,2.60
2022-11-20T10:09:52.891Z,2.60
2022-11-20T10:12:29.717Z,2.60
2022-11-20T10:15:14.734Z,2.70
2022-11-20T10:18:23.541Z,2.90
2022-11-20T10:21:02.915Z,2.90
2022-11-20T10:23:49.862Z,3.00
2022-11-20T10:26:23.623Z,3.10
2022-11-20T10:29:08.484Z,3.10
2022-11-20T10:31:40.184Z,3.30
2022-11-20T10:34:22.456Z,3.30
2022-11-20T10:36:56.568Z,3.40
2022-11-20T10:39:32.272Z,3.40
2022-11-20T10:42:01.507Z,3.40
2022-11-20T10:44:52.555Z,3.60
2022-11-20T10:47:26.711Z,3.60
2022-11-20T10:50:00.846Z,3.60
2022-11-20T10:52:38.877Z,3.80
2022-11-20T10:55:39.153Z,3.90
2022-11-20T10:58:15.525Z,4.00
2022-11-20T11:03:25.023Z,4.00
2022-11-20T11:05:58.546Z,4.10
2022-11-20T11:08:30.853Z,4.20
2022-11-20T11:11:20.203Z,4.20
2022-11-20T11:13:48.047Z,4.40
2022-11-20T11:16:24.018Z,4.40
2022-11-20T11:21:26.975Z,4.50
2022-11-20T11:24:19.588Z,4.60
2022-11-20T11:26:59.649Z,4.60
2022-11-20T11:29:44.464Z,4.60
2022-11-20T11:32:15.813Z,4.80
2022-11-20T11:34:46.386Z,4.80
2022-11-20T11:37:24.183Z,4.90
2022-11-20T11:40:22.398Z,4.80
2022-11-20T11:42:45.403Z,4.90
2022-11-20T11:45:15.739Z,4.90
2022-11-20T11:47:48.515Z,4.90
2022-11-20T11:50:20.186Z,5.10
2022-11-20T11:52:54.590Z,5.10
2022-11-20T11:55:33.486Z,5.00
2022-11-20T11:58:13.719Z,5.00
2022-11-20T12:00:49.293Z,5.10
2022-11-20T12:03:24.841Z,5.10
2022-11-20T12:05:59.706Z,5.10
2022-11-20T12:08:33.521Z,5.10
2022-11-20T12:11:08.527Z,5.10
2022-11-20T12:13:50.894Z,5.30
2022-11-20T12:16:21.253Z,5.30
2022-11-20T12:18:51.441Z,5.30
2022-11-20T12:21:22.458Z,5.40
2022-11-20T12:24:04.422Z,5.40
2022-11-20T12:26:50.016Z,5.40
2022-11-20T12:29:25.644Z,5.40
2022-11-20T12:32:06.622Z,5.40
2022-11-20T12:34:49.438Z,5.50
2022-11-20T12:37:31.481Z,5.40
2022-11-20T12:40:05.323Z,5.40
2022-11-20T12:43:09.358Z,5.60
2022-11-20T12:46:13.642Z,5.50
2022-11-20T12:49:04.935Z,5.50
2022-11-20T12:51:50.215Z,5.50
2022-11-20T12:54:52.564Z,5.50
2022-11-20T12:57:26.622Z,5.50
2022-11-20T13:00:10.841Z,5.50
2022-11-20T13:03:02.885Z,5.60
2022-11-20T13:05:38.933Z,5.50
2022-11-20T13:08:17.074Z,5.60
2022-11-20T13:10:51.465Z,5.40
2022-11-20T13:13:27.961Z,5.50
2022-11-20T13:16:01.336Z,5.60
2022-11-20T13:18:39.975Z,5.60
2022-11-20T13:21:17.193Z,5.70
2022-11-20T13:23:47.732Z,5.60
2022-11-20T13:26:19.485Z,5.60
2022-11-20T13:28:49.478Z,5.60
2022-11-20T13:31:34.644Z,5.70
2022-11-20T13:34:07.726Z,5.50
2022-11-20T13:36:37.457Z,5.60
2022-11-20T13:39:05.337Z,5.60
2022-11-20T13:41:36.126Z,5.70
2022-11-20T13:44:18.448Z,5.70
2022-11-20T13:46:47.931Z,5.60
2022-11-20T13:49:24.587Z,5.70
2022-11-20T13:51:57.681Z,5.60
2022-11-20T13:54:57.804Z,5.60
2022-11-20T13:57:44.971Z,5.70
2022-11-20T14:00:18.680Z,5.70
2022-11-20T14:03:03.163Z,5.70
2022-11-20T14:05:36.734Z,5.70
2022-11-20T14:08:07.051Z,5.30
2022-11-20T14:10:34.811Z,5.70
2022-11-20T14:13:13.256Z,5.70
2022-11-20T14:15:44.872Z,5.70
2022-11-20T14:18:15.318Z,5.80
2022-11-20T14:20:45.182Z,5.80
2022-11-20T14:23:14.473Z,5.80
2022-11-20T14:25:44.915Z,5.80
2022-11-20T14:28:24.198Z,5.80
2022-11-20T14:33:28.177Z,5.70
2022-11-20T14:36:00.800Z,5.80
2022-11-20T14:38:30.708Z,5.80
2022-11-20T14:41:08.569Z,5.80
2022-11-20T14:43:38.592Z,5.80
2022-11-20T14:46:09.387Z,5.80
2022-11-20T14:48:41.627Z,5.90
2022-11-20T14:51:12.738Z,5.80
2022-11-20T14:53:40.579Z,5.90
2022-11-20T14:56:12.315Z,5.80
2022-11-20T14:58:40.184Z,5.80
2022-11-20T15:01:14.255Z,5.80
2022-11-20T15:06:29.316Z,5.80
2022-11-20T15:11:31.549Z,5.80
2022-11-20T15:14:04.350Z,5.80
2022-11-20T15:16:38.590Z,5.90
2022-11-20T15:19:18.729Z,5.80
2022-11-20T15:21:47.803Z,5.90
2022-11-20T15:24:15.588Z,5.80
2022-11-20T15:29:13.830Z,5.80
2022-11-20T15:34:14.066Z,5.80
2022-11-20T15:36:44.964Z,5.80
2022-11-20T15:39:14.070Z,5.80
2022-11-20T15:46:42.362Z,5.80
2022-11-20T15:49:16.985Z,5.90
2022-11-20T15:51:50.002Z,5.90
2022-11-20T15:54:22.095Z,5.90
2022-11-20T15:56:50.477Z,5.90
2022-11-20T15:59:18.827Z,5.80
2022-11-20T16:01:46.695Z,5.90
2022-11-20T16:04:15.872Z,6.00
2022-11-20T16:06:44.185Z,5.90
2022-11-20T16:11:44.776Z,6.00
2022-11-20T16:14:30.196Z,6.00
2022-11-20T16:17:00.685Z,6.10
2022-11-20T16:19:28.490Z,6.10
2022-11-20T16:22:02.246Z,6.10
2022-11-20T16:24:36.329Z,6.10
2022-11-20T16:27:11.393Z,6.10
2022-11-20T16:29:39.162Z,6.20
2022-11-20T16:34:35.045Z,6.20
2022-11-20T16:37:04.917Z,6.20
2022-11-20T16:39:32.692Z,6.20
2022-11-20T16:42:00.575Z,6.30
2022-11-20T16:44:29.657Z,6.30
2022-11-20T16:46:57.697Z,6.30
2022-11-20T16:49:26.109Z,6.30
2022-11-20T16:51:54.984Z,6.40
2022-11-20T16:54:23.477Z,6.40
2022-11-20T16:56:53.391Z,6.40
2022-11-20T16:59:21.220Z,6.30
2022-11-20T17:01:50.793Z,6.40
2022-11-20T17:04:18.799Z,6.30
2022-11-20T17:06:47.795Z,6.40
2022-11-20T17:09:15.781Z,6.50
2022-11-20T17:14:12.593Z,6.60
2022-11-20T17:16:40.432Z,6.50
2022-11-20T17:19:09.806Z,6.50
2022-11-20T17:21:38.147Z,6.60
2022-11-20T17:24:08.466Z,6.50
2022-11-20T17:26:37.349Z,6.60
2022-11-20T17:29:07.433Z,6.50
2022-11-20T17:31:38.558Z,6.60
2022-11-20T17:34:07.378Z,6.50
2022-11-20T17:36:40.719Z,6.60
2022-11-20T17:39:12.192Z,6.60
2022-11-20T17:41:40.007Z,6.70
2022-11-20T17:44:10.597Z,6.60
2022-11-20T17:46:38.825Z,6.60
2022-11-20T17:49:09.344Z,6.70
2022-11-20T17:51:38.506Z,6.60
2022-11-20T17:54:08.271Z,6.60
2022-11-20T17:56:54.790Z,6.70
2022-11-20T18:01:51.149Z,6.70
2022-11-20T18:04:19.050Z,6.70
2022-11-20T18:06:50.995Z,6.60
2022-11-20T18:09:18.759Z,6.60
2022-11-20T18:11:46.562Z,6.70
2022-11-20T18:14:34.306Z,6.60
2022-11-20T18:17:04.069Z,6.60
2022-11-20T18:19:34.797Z,6.60
2022-11-20T18:22:08.966Z,6.50
2022-11-20T18:24:37.271Z,6.70
2022-11-20T18:27:05.715Z,6.50
2022-11-20T18:29:33.943Z,6.60
2022-11-20T18:32:03.948Z,6.60
2022-11-20T18:37:00.060Z,6.50
2022-11-20T18:39:29.387Z,6.60
2022-11-20T18:42:14.549Z,6.60
2022-11-20T18:44:52.041Z,6.60
2022-11-20T18:47:21.623Z,6.60
2022-11-20T18:49:52.508Z,6.50
2022-11-20T18:52:22.747Z,6.60
2022-11-20T18:54:52.412Z,6.60
2022-11-20T19:02:19.960Z,6.60
2022-11-20T19:04:50.175Z,6.60
2022-11-20T19:07:18.319Z,6.60
2022-11-20T19:09:49.404Z,6.60
2022-11-20T19:12:19.397Z,6.60
2022-11-20T19:14:47.333Z,6.60
2022-11-20T19:17:27.493Z,6.60
2022-11-20T19:19:55.323Z,6.60
2022-11-20T19:24:56.522Z,6.50
2022-11-20T19:27:30.172Z,6.60
2022-11-20T19:32:31.059Z,6.60
2022-11-20T19:34:58.821Z,6.60
2022-11-20T19:37:26.546Z,6.50
2022-11-20T19:39:59.519Z,6.60
2022-11-20T19:42:28.647Z,6.60
2022-11-20T19:44:58.128Z,6.50
2022-11-20T19:47:46.063Z,6.60
2022-11-20T19:52:52.018Z,6.60
2022-11-20T19:57:52.989Z,6.60
2022-11-20T20:00:29.698Z,6.50
2022-11-20T20:03:00.418Z,6.60
2022-11-20T20:05:28.197Z,6.60
2022-11-20T20:10:26.674Z,6.50
2022-11-20T20:13:00.354Z,6.70
2022-11-20T20:15:28.173Z,6.60
2022-11-20T20:20:24.373Z,6.60
2022-11-20T20:25:23.071Z,6.60
2022-11-20T20:27:54.657Z,6.60
2022-11-20T20:30:22.597Z,6.70
2022-11-20T20:32:56.457Z,6.70
2022-11-20T20:35:24.586Z,6.70
2022-11-20T20:38:01.537Z,6.70
2022-11-20T20:42:58.749Z,6.60
2022-11-20T20:45:26.545Z,6.60
2022-11-20T20:48:00.546Z,6.70
2022-11-20T20:50:31.209Z,6.70
2022-11-20T20:53:01.961Z,6.70
2022-11-20T20:55:29.758Z,6.70
2022-11-20T20:57:58.910Z,6.60
2022-11-20T21:00:28.600Z,6.70
2022-11-20T21:05:24.793Z,6.60
2022-11-20T21:08:11.399Z,6.50
2022-11-20T21:10:41.321Z,6.60
2022-11-20T21:13:13.138Z,6.70
2022-11-20T21:15:41.136Z,6.60
2022-11-20T21:18:11.090Z,6.70
2022-11-20T21:20:57.860Z,6.70
2022-11-20T21:23:25.769Z,6.70
2022-11-20T21:25:53.623Z,6.60
2022-11-20T21:28:22.982Z,6.70
2022-11-20T21:38:17.502Z,6.80
2022-11-20T21:40:45.382Z,6.70
2022-11-20T21:43:15.913Z,6.80
2022-11-20T21:45:45.094Z,6.80
2022-11-20T21:48:12.869Z,6.80
2022-11-20T21:50:40.686Z,6.90
2022-11-20T21:53:08.465Z,6.70
2022-11-20T21:57:49.838Z,6.80
2022-11-20T22:00:18.262Z,6.80
2022-11-20T22:02:46.151Z,6.80
2022-11-20T22:05:14.030Z,6.80
2022-11-20T22:07:47.320Z,6.80
2022-11-20T22:10:18.421Z,6.90
2022-11-20T22:12:46.592Z,6.90
2022-11-20T22:15:20.389Z,6.90
2022-11-20T22:20:26.245Z,6.80
2022-11-20T22:22:56.731Z,7.00
2022-11-20T22:25:24.474Z,7.00
2022-11-20T22:30:22.716Z,6.80
2022-11-20T22:32:53.973Z,6.90
2022-11-20T22:35:21.742Z,6.80
2022-11-20T22:37:51.244Z,6.90
2022-11-20T22:40:20.397Z,6.80
2022-11-20T22:42:48.474Z,6.80
2022-11-20T22:45:16.570Z,6.90
2022-11-20T22:47:44.344Z,6.80
2022-11-20T22:50:12.142Z,6.90
2022-11-20T22:52:39.918Z,6.90
2022-11-20T22:55:15.981Z,6.90
2022-11-20T22:57:47.145Z,6.80
2022-11-20T23:00:15.989Z,6.80
2022-11-20T23:02:45.163Z,6.80
2022-11-20T23:05:12.918Z,6.80
2022-11-20T23:10:11.300Z,6.70
2022-11-20T23:12:39.149Z,6.80
2022-11-20T23:15:14.769Z,6.90
2022-11-20T23:17:42.702Z,6.90
2022-11-20T23:20:13.550Z,6.80
2022-11-20T23:25:16.366Z,6.90
2022-11-20T23:30:13.057Z,6.80
2022-11-20T23:32:40.781Z,6.80
2022-11-20T23:37:36.927Z,6.70
2022-11-20T23:42:34.661Z,6.80
2022-11-20T23:45:06.587Z,6.80
2022-11-20T23:47:34.311Z,6.80
2022-11-20T23:52:32.444Z,6.80
2022-11-20T23:55:00.303Z,6.80
2022-11-20T23:57:40.973Z,6.70
